Time;durP1;ratioP1;P1;durP2;ratioP2;P2;SDS_P1;SDS_P2;PMS_P1;PMS_P2;Temp;Humidity;BMP_temperature;BMP_pressure;BME280_temperature;BME280_humidity;BME280_pressure;Samples;Min_cycle;Max_cycle;Signal;HPM_P1;HPM_P2
2021/08/31 00:01:55;;;;;;;1.20;1.00;;;22.80;57.20;;;;;;6255117;23;20170;-86
2021/08/31 00:04:21;;;;;;;1.00;0.70;;;22.80;57.20;;;;;;6230259;23;20371;-86
2021/08/31 00:06:49;;;;;;;1.00;0.80;;;22.80;57.20;;;;;;6230793;23;20373;-85
2021/08/31 00:09:15;;;;;;;0.80;0.60;;;22.80;57.20;;;;;;6230221;23;20155;-86
2021/08/31 00:11:44;;;;;;;0.90;0.70;;;22.80;57.20;;;;;;6254562;23;20386;-86
2021/08/31 00:14:10;;;;;;;0.80;0.60;;;22.80;57.20;;;;;;6231035;23;20174;-86
2021/08/31 00:16:36;;;;;;;0.80;0.60;;;22.80;57.20;;;;;;6228751;23;20731;-85
2021/08/31 00:19:03;;;;;;;1.07;0.77;;;22.80;57.20;;;;;;6229792;23;20960;-86
2021/08/31 00:21:28;;;;;;;1.07;0.70;;;22.80;57.20;;;;;;6229366;23;20473;-86
2021/08/31 00:23:55;;;;;;;0.90;0.70;;;22.80;57.20;;;;;;6229232;23;20375;-85
2021/08/31 00:26:26;;;;;;;1.00;0.70;;;22.80;57.20;;;;;;6229420;23;20444;-85
2021/08/31 00:28:52;;;;;;;0.90;0.60;;;22.80;57.20;;;;;;6251953;23;20370;-85
2021/08/31 00:31:17;;;;;;;0.90;0.70;;;22.80;57.20;;;;;;6251258;23;20759;-84
2021/08/31 00:33:43;;;;;;;0.90;0.70;;;22.80;57.20;;;;;;6227331;23;20367;-85
2021/08/31 00:36:11;;;;;;;0.93;0.73;;;22.80;57.20;;;;;;6225494;23;20167;-85
2021/08/31 00:38:37;;;;;;;1.00;0.77;;;22.80;57.20;;;;;;6225890;23;20178;-85
2021/08/31 00:41:04;;;;;;;0.90;0.70;;;22.80;57.20;;;;;;6251908;23;20426;-84
2021/08/31 00:43:47;;;;;;;1.03;0.70;;;22.80;57.20;;;;;;6250986;23;20151;-84
2021/08/31 00:46:14;;;;;;;1.30;0.70;;;22.80;57.20;;;;;;6226887;23;20371;-85
2021/08/31 00:48:44;;;;;;;0.90;0.70;;;22.80;57.20;;;;;;6225930;23;20381;-85
2021/08/31 00:51:11;;;;;;;0.90;0.60;;;22.80;57.20;;;;;;6225594;23;20393;-85
2021/08/31 00:53:39;;;;;;;0.90;0.70;;;22.80;57.20;;;;;;6225726;23;20462;-85
2021/08/31 00:56:11;;;;;;;0.97;0.70;;;22.80;57.20;;;;;;6225901;23;20378;-86
2021/08/31 00:58:43;;;;;;;1.10;0.73;;;22.80;57.20;;;;;;6251646;23;20389;-86
2021/08/31 01:01:09;;;;;;;0.90;0.70;;;22.80;57.20;;;;;;6226614;23;20424;-85
2021/08/31 01:03:35;;;;;;;0.90;0.60;;;22.80;57.20;;;;;;6251226;23;20450;-86
2021/08/31 01:06:07;;;;;;;1.10;0.80;;;22.80;57.20;;;;;;6226499;23;20693;-86
2021/08/31 01:08:33;;;;;;;1.07;0.80;;;22.80;57.20;;;;;;6226092;23;20384;-85
2021/08/31 01:11:00;;;;;;;0.90;0.70;;;22.80;57.20;;;;;;6253472;23;20374;-85
2021/08/31 01:13:30;;;;;;;0.90;0.70;;;22.80;57.20;;;;;;6229956;23;20151;-85
2021/08/31 01:15:56;;;;;;;0.90;0.70;;;22.80;57.20;;;;;;6227898;23;20378;-85
2021/08/31 01:18:27;;;;;;;0.90;0.70;;;22.80;57.20;;;;;;6228566;23;20793;-85
2021/08/31 01:20:58;;;;;;;0.90;0.70;;;22.80;57.20;;;;;;6253454;23;20179;-85
2021/08/31 01:23:26;;;;;;;0.90;0.60;;;22.80;57.20;;;;;;6228458;23;20401;-85
2021/08/31 01:25:57;;;;;;;0.90;0.70;;;22.80;57.20;;;;;;6227791;23;20428;-85
2021/08/31 01:28:27;;;;;;;0.97;0.80;;;22.80;57.20;;;;;;6227205;23;20390;-85
2021/08/31 01:30:55;;;;;;;1.00;0.60;;;22.80;57.20;;;;;;6228004;23;20446;-85
2021/08/31 01:33:26;;;;;;;0.90;0.70;;;22.80;57.20;;;;;;6229367;23;20399;-85
2021/08/31 01:35:52;;;;;;;0.90;0.60;;;22.80;57.20;;;;;;6222720;23;20410;-85
2021/08/31 01:38:20;;;;;;;1.00;0.70;;;22.80;57.20;;;;;;6198858;23;20359;-85
2021/08/31 01:47:34;;;;;;;1.00;0.73;;;22.80;57.30;;;;;;6078660;23;20418;-85
2021/08/31 01:50:00;;;;;;;0.90;0.70;;;22.70;57.30;;;;;;6079013;23;20438;-85
2021/08/31 01:52:25;;;;;;;0.90;0.60;;;22.70;57.30;;;;;;6078139;23;20524;-86
2021/08/31 01:54:51;;;;;;;1.00;0.80;;;22.80;57.30;;;;;;6054984;23;20162;-86
2021/08/31 01:57:17;;;;;;;0.93;0.70;;;22.80;57.30;;;;;;6078596;23;20154;-86
2021/08/31 01:59:45;;;;;;;0.87;0.67;;;22.80;57.30;;;;;;6078704;23;20799;-86
2021/08/31 02:02:11;;;;;;;0.90;0.60;;;22.80;57.30;;;;;;6078647;23;20387;-86
2021/08/31 02:04:37;;;;;;;0.90;0.70;;;22.80;57.30;;;;;;6078040;23;20410;-86
2021/08/31 02:23:22;;;;;;;1.00;0.80;;;22.70;57.40;;;;;;6198274;23;20346;-86
2021/08/31 02:25:50;;;;;;;1.17;0.80;;;22.70;57.40;;;;;;6172730;23;20375;-87
2021/08/31 02:28:30;;;;;;;0.80;0.60;;;22.70;57.40;;;;;;6198357;23;20375;-86
2021/08/31 02:30:59;;;;;;;0.90;0.60;;;22.70;57.40;;;;;;6171879;23;20418;-86
2021/08/31 02:33:35;;;;;;;;;;;;;;;;;;;;;
2021/08/31 02:36:01;;;;;;;1.10;0.70;;;22.70;57.30;;;;;;6197473;23;20423;-86
2021/08/31 02:38:26;;;;;;;1.00;0.80;;;22.70;57.30;;;;;;6172149;23;20387;-86
2021/08/31 02:40:55;;;;;;;1.07;0.73;;;22.70;57.30;;;;;;6172061;23;20186;-86
2021/08/31 02:43:21;;;;;;;1.03;0.70;;;22.70;57.30;;;;;;6172040;23;20846;-86
2021/08/31 02:45:47;;;;;;;0.90;0.60;;;22.80;57.30;;;;;;6172548;23;20403;-87
2021/08/31 02:48:13;;;;;;;1.00;0.77;;;22.70;57.20;;;;;;6198213;23;20371;-86
2021/08/31 02:50:38;;;;;;;0.90;0.70;;;22.80;57.30;;;;;;6171923;23;20163;-87
2021/08/31 02:53:04;;;;;;;1.00;0.70;;;22.80;57.90;;;;;;6171300;23;20159;-86
2021/08/31 02:55:30;;;;;;;1.10;0.77;;;22.80;57.30;;;;;;6171590;23;20159;-86
2021/08/31 02:58:03;;;;;;;1.00;0.87;;;22.80;57.30;;;;;;6172223;23;20419;-86
2021/08/31 03:00:31;;;;;;;1.20;0.90;;;22.80;57.30;;;;;;6199013;23;20243;-86
2021/08/31 03:02:59;;;;;;;0.90;0.70;;;22.80;57.30;;;;;;6171787;23;20495;-87
2021/08/31 03:05:25;;;;;;;0.90;0.80;;;22.80;57.30;;;;;;6172454;23;20383;-86
2021/08/31 03:07:52;;;;;;;1.10;0.80;;;22.80;57.30;;;;;;6172462;23;20439;-86
2021/08/31 03:10:21;;;;;;;0.90;0.60;;;22.80;57.30;;;;;;6171947;23;20250;-86
2021/08/31 03:12:46;;;;;;;0.90;0.70;;;22.80;57.30;;;;;;6170756;23;20390;-87
2021/08/31 03:15:12;;;;;;;0.90;0.70;;;22.80;57.30;;;;;;6198082;23;20375;-86
2021/08/31 03:17:38;;;;;;;1.00;0.80;;;22.80;57.30;;;;;;6172620;23;20160;-86
2021/08/31 03:20:05;;;;;;;1.00;0.70;;;22.80;57.30;;;;;;6171735;23;20197;-86
2021/08/31 03:22:31;;;;;;;1.00;0.90;;;22.80;57.30;;;;;;6172380;23;20537;-86
2021/08/31 03:24:59;;;;;;;1.13;0.80;;;22.80;57.30;;;;;;6171698;23;20387;-86
2021/08/31 03:27:25;;;;;;;1.00;0.70;;;22.80;57.30;;;;;;6171818;23;20378;-86
2021/08/31 03:29:54;;;;;;;1.00;0.70;;;22.80;57.30;;;;;;6170990;23;20390;-86
2021/08/31 03:32:20;;;;;;;0.90;0.70;;;22.80;57.30;;;;;;6171105;23;20653;-86
2021/08/31 03:34:45;;;;;;;1.10;0.70;;;22.80;57.30;;;;;;6171653;23;20391;-86
2021/08/31 03:37:11;;;;;;;0.97;0.60;;;22.80;57.30;;;;;;6208529;23;20493;-87
2021/08/31 03:39:38;;;;;;;1.00;0.80;;;22.80;57.30;;;;;;6251230;23;20194;-86
2021/08/31 03:42:04;;;;;;;0.90;0.70;;;22.80;57.30;;;;;;6251740;23;20856;-86
2021/08/31 03:44:38;;;;;;;0.93;0.70;;;22.80;57.30;;;;;;6251426;23;20509;-86
2021/08/31 03:47:04;;;;;;;0.90;0.70;;;22.80;57.30;;;;;;6227143;23;20155;-86
2021/08/31 03:49:32;;;;;;;0.90;0.70;;;22.70;57.30;;;;;;6252727;23;20398;-86
2021/08/31 03:51:58;;;;;;;1.00;0.80;;;22.70;57.30;;;;;;6228229;23;20378;-86
2021/08/31 03:54:23;;;;;;;1.10;0.80;;;22.70;57.30;;;;;;6226524;23;20449;-87
2021/08/31 03:56:49;;;;;;;1.10;0.97;;;22.80;57.30;;;;;;6226016;23;20151;-86
2021/08/31 03:59:19;;;;;;;1.10;0.70;;;22.70;57.20;;;;;;6251845;23;20584;-87
2021/08/31 04:01:45;;;;;;;0.90;0.60;;;22.70;57.30;;;;;;6226407;23;20155;-86
2021/08/31 04:04:13;;;;;;;0.90;0.70;;;22.70;57.30;;;;;;6227924;23;20381;-87
2021/08/31 04:06:41;;;;;;;0.90;0.70;;;22.70;57.30;;;;;;6225822;23;20509;-87
2021/08/31 04:09:07;;;;;;;0.90;0.60;;;22.70;57.40;;;;;;6251420;23;20393;-86
2021/08/31 04:11:33;;;;;;;1.20;0.73;;;22.70;57.30;;;;;;6251417;23;20374;-86
2021/08/31 04:13:59;;;;;;;1.00;0.83;;;22.70;57.30;;;;;;6226085;23;20234;-86
2021/08/31 04:16:24;;;;;;;1.00;0.70;;;22.70;57.30;;;;;;6251289;23;20386;-86
2021/08/31 04:18:50;;;;;;;0.90;0.70;;;22.70;57.30;;;;;;6251815;23;20166;-86
2021/08/31 04:21:16;;;;;;;0.90;0.70;;;22.70;57.30;;;;;;6251776;23;20182;-86
2021/08/31 04:23:44;;;;;;;1.00;0.77;;;22.70;57.30;;;;;;6226167;23;20162;-86
2021/08/31 04:26:12;;;;;;;1.00;0.70;;;22.70;57.30;;;;;;6227443;23;20147;-86
2021/08/31 04:28:38;;;;;;;1.00;0.80;;;22.70;57.30;;;;;;6226262;23;20517;-86
2021/08/31 04:31:06;;;;;;;1.03;0.70;;;22.80;57.30;;;;;;6227502;23;20374;-86
2021/08/31 04:33:34;;;;;;;0.93;0.70;;;22.80;57.30;;;;;;6251736;23;20467;-86
2021/08/31 04:36:01;;;;;;;0.83;0.63;;;22.80;57.20;;;;;;6251297;23;20397;-86
2021/08/31 04:38:30;;;;;;;1.00;0.70;;;22.80;57.20;;;;;;6251355;23;20417;-86
2021/08/31 04:40:58;;;;;;;0.90;0.80;;;22.80;57.20;;;;;;6225885;23;20505;-86
2021/08/31 04:43:26;;;;;;;1.00;0.70;;;22.80;57.20;;;;;;6226120;23;20370;-86
2021/08/31 04:46:13;;;;;;;1.13;0.70;;;22.80;57.10;;;;;;6227589;23;20371;-86
2021/08/31 04:48:42;;;;;;;1.00;0.90;;;22.80;57.60;;;;;;6226696;23;20391;-86
2021/08/31 04:51:17;;;;;;;0.90;0.70;;;22.80;57.00;;;;;;6227764;23;20362;-86
2021/08/31 04:53:45;;;;;;;0.90;0.70;;;22.80;57.00;;;;;;6251660;23;20389;-86
2021/08/31 04:56:13;;;;;;;1.10;0.70;;;22.80;57.00;;;;;;6225237;23;20493;-86
2021/08/31 04:58:42;;;;;;;1.07;0.80;;;22.90;57.00;;;;;;6251215;23;20378;-86
2021/08/31 05:01:08;;;;;;;1.00;0.70;;;22.90;57.00;;;;;;6251982;23;20892;-86
2021/08/31 05:03:39;;;;;;;1.10;0.70;;;22.90;57.00;;;;;;6228024;23;20405;-86
2021/08/31 05:06:09;;;;;;;0.90;0.80;;;22.90;56.90;;;;;;6226051;23;20147;-86
2021/08/31 05:08:36;;;;;;;1.03;0.70;;;22.90;56.90;;;;;;6227573;23;20371;-86
2021/08/31 05:11:02;;;;;;;0.90;0.70;;;22.90;56.90;;;;;;6226180;23;20891;-86
2021/08/31 05:13:28;;;;;;;0.90;0.70;;;22.90;56.80;;;;;;6251461;23;20382;-86
2021/08/31 05:15:54;;;;;;;1.10;0.93;;;22.90;56.80;;;;;;6251921;23;20192;-86
2021/08/31 05:18:20;;;;;;;1.10;1.00;;;22.90;56.80;;;;;;6226125;23;20182;-85
2021/08/31 05:20:49;;;;;;;1.20;0.80;;;22.90;56.80;;;;;;6228284;23;20428;-86
2021/08/31 05:23:15;;;;;;;0.90;0.70;;;23.00;56.80;;;;;;6227962;23;20409;-87
2021/08/31 05:25:43;;;;;;;1.00;0.80;;;22.90;56.70;;;;;;6228812;23;20382;-87
2021/08/31 05:28:09;;;;;;;1.10;0.80;;;23.00;56.80;;;;;;6228861;23;20405;-86
2021/08/31 05:30:34;;;;;;;0.90;0.80;;;23.00;56.80;;;;;;6253390;23;20378;-87
2021/08/31 05:33:03;;;;;;;1.00;0.77;;;23.00;56.80;;;;;;6227573;23;20155;-87
2021/08/31 05:35:31;;;;;;;1.00;0.70;;;23.00;56.70;;;;;;6227545;23;20250;-86
2021/08/31 05:37:57;;;;;;;1.07;0.80;;;23.00;56.70;;;;;;6227894;23;20398;-87
2021/08/31 05:40:23;;;;;;;1.10;0.80;;;23.00;56.70;;;;;;6229160;23;20405;-87
2021/08/31 05:42:49;;;;;;;1.30;1.10;;;23.00;56.70;;;;;;6227567;23;20161;-87
2021/08/31 05:45:18;;;;;;;1.20;0.97;;;23.00;56.70;;;;;;6252778;23;20396;-87
2021/08/31 05:47:52;;;;;;;1.00;0.87;;;23.00;56.70;;;;;;6254195;23;20155;-87
2021/08/31 05:50:18;;;;;;;1.00;0.70;;;23.00;56.70;;;;;;6253198;23;20409;-87
2021/08/31 05:52:46;;;;;;;1.27;0.80;;;23.00;56.70;;;;;;6230005;23;20374;-86
2021/08/31 05:55:28;;;;;;;1.00;0.90;;;23.00;56.70;;;;;;6253428;23;20608;-86
2021/08/31 05:58:06;;;;;;;1.10;0.83;;;23.00;56.60;;;;;;6229593;23;20447;-86
2021/08/31 06:00:32;;;;;;;1.00;0.80;;;23.00;56.60;;;;;;6231438;23;20410;-87
2021/08/31 06:02:58;;;;;;;1.10;0.90;;;23.00;56.70;;;;;;6229807;23;20883;-87
2021/08/31 06:05:27;;;;;;;1.13;1.00;;;23.00;56.70;;;;;;6229746;23;20378;-87
2021/08/31 06:07:52;;;;;;;1.00;0.80;;;23.00;56.60;;;;;;6231596;23;20162;-87
2021/08/31 06:10:32;;;;;;;1.00;0.80;;;23.00;56.60;;;;;;6229802;23;20390;-87
2021/08/31 06:13:00;;;;;;;1.00;0.80;;;23.10;56.70;;;;;;6229097;23;20139;-87
2021/08/31 06:18:48;;;;;;;1.10;0.80;;;23.10;56.60;;;;;;6230160;23;20370;-87
2021/08/31 06:21:16;;;;;;;1.00;0.80;;;23.00;56.60;;;;;;6254669;23;20964;-87
2021/08/31 06:23:42;;;;;;;1.07;0.80;;;23.00;56.60;;;;;;6228791;23;20695;-87
2021/08/31 06:26:20;;;;;;;1.00;0.70;;;23.00;56.60;;;;;;6230881;23;20385;-86
2021/08/31 06:32:43;;;;;;;1.10;0.90;;;23.10;56.60;;;;;;6109459;23;20404;-87
2021/08/31 06:35:21;;;;;;;1.10;0.83;;;23.00;56.60;;;;;;6085288;23;20389;-87
2021/08/31 06:37:47;;;;;;;0.80;0.60;;;23.00;56.70;;;;;;6109381;23;20405;-87
2021/08/31 06:40:18;;;;;;;0.90;0.70;;;23.00;56.60;;;;;;6085066;23;20436;-87
2021/08/31 06:42:52;;;;;;;1.07;0.90;;;23.10;56.70;;;;;;6109565;23;20215;-87
2021/08/31 06:45:21;;;;;;;1.27;0.83;;;23.10;56.60;;;;;;6109503;23;20396;-87
2021/08/31 06:48:21;;;;;;;1.40;1.00;;;23.10;56.60;;;;;;6109798;23;20743;-87
2021/08/31 06:50:49;;;;;;;0.97;0.80;;;23.10;56.60;;;;;;6109595;23;20471;-86
2021/08/31 06:53:27;;;;;;;1.13;0.80;;;23.10;56.60;;;;;;6109655;23;20486;-87
2021/08/31 06:59:15;;;;;;;1.30;0.80;;;23.10;56.60;;;;;;6109392;23;20458;-87
2021/08/31 07:01:43;;;;;;;0.90;0.80;;;23.10;56.60;;;;;;6109089;23;20384;-87
2021/08/31 07:04:26;;;;;;;1.10;0.80;;;23.10;56.60;;;;;;6109847;23;20469;-87
2021/08/31 07:06:54;;;;;;;1.00;0.80;;;23.10;56.70;;;;;;6109227;23;20382;-87
2021/08/31 07:09:36;;;;;;;1.20;1.00;;;23.10;56.60;;;;;;6108724;23;20500;-87
2021/08/31 07:12:14;;;;;;;;;;;;;;;;;;;;;
2021/08/31 07:14:47;;;;;;;1.10;1.00;;;23.10;56.60;;;;;;6161692;23;20402;-86
2021/08/31 07:24:14;;;;;;;1.10;0.90;;;23.10;56.60;;;;;;6109125;23;20370;-87
2021/08/31 07:26:54;;;;;;;1.00;0.67;;;23.10;56.80;;;;;;6109111;23;20405;-87
2021/08/31 07:29:23;;;;;;;1.20;0.80;;;23.10;56.80;;;;;;6109470;23;20374;-87
2021/08/31 07:38:06;;;;;;;0.90;0.70;;;23.10;56.80;;;;;;6108995;23;20494;-87
2021/08/31 07:40:36;;;;;;;1.00;0.80;;;23.10;56.90;;;;;;6109099;23;20429;-87
2021/08/31 07:56:27;;;;;;;1.10;0.80;;;23.10;56.90;;;;;;6031537;23;20371;-87
2021/08/31 07:59:05;;;;;;;1.00;0.80;;;23.10;56.90;;;;;;6087111;23;20411;-87
2021/08/31 08:01:53;;;;;;;1.20;0.80;;;23.10;57.00;;;;;;6112597;23;20445;-87
2021/08/31 08:04:19;;;;;;;1.00;0.70;;;23.10;56.90;;;;;;6113350;23;20389;-87
2021/08/31 08:06:55;;;;;;;0.90;0.80;;;23.10;56.90;;;;;;6138360;23;20369;-87
2021/08/31 08:09:27;;;;;;;1.30;0.97;;;23.10;56.90;;;;;;6112229;23;20452;-87
2021/08/31 08:12:05;;;;;;;1.37;1.13;;;23.10;56.90;;;;;;6113125;23;20758;-86
2021/08/31 08:14:37;;;;;;;0.90;0.70;;;23.10;56.90;;;;;;6138385;23;20353;-87
2021/08/31 08:17:19;;;;;;;1.10;0.70;;;23.10;56.90;;;;;;6199238;23;20405;-87
2021/08/31 08:26:03;;;;;;;1.37;1.10;;;23.20;56.90;;;;;;6230539;23;20398;-87
2021/08/31 08:28:39;;;;;;;1.03;0.90;;;23.10;56.90;;;;;;6229004;23;20381;-87
2021/08/31 08:31:09;;;;;;;0.97;0.87;;;23.10;56.90;;;;;;6227967;23;20459;-87
2021/08/31 08:33:46;;;;;;;;;;;;;;;;;;;;;
2021/08/31 08:36:17;;;;;;;1.10;0.80;;;23.20;57.00;;;;;;6230606;23;20390;-87
2021/08/31 08:38:49;;;;;;;0.90;0.70;;;23.20;57.00;;;;;;6228196;23;20884;-87
2021/08/31 08:41:18;;;;;;;1.00;0.90;;;23.20;57.00;;;;;;6253479;23;20433;-87
2021/08/31 08:47:29;;;;;;;1.07;0.90;;;23.20;56.90;;;;;;6108654;23;20385;-87
2021/08/31 08:50:00;;;;;;;1.07;0.97;;;23.20;57.00;;;;;;6150296;23;20373;-88
2021/08/31 08:53:08;;;;;;;1.00;0.87;;;23.20;57.00;;;;;;6223432;23;20409;-86
2021/08/31 08:55:47;;;;;;;1.20;1.00;;;23.20;57.00;;;;;;6164002;23;20383;-87
2021/08/31 08:58:20;;;;;;;1.00;0.70;;;23.20;57.00;;;;;;6229246;23;20817;-86
2021/08/31 09:04:06;;;;;;;1.03;0.80;;;23.20;57.00;;;;;;6229937;23;20353;-86
2021/08/31 09:06:57;;;;;;;1.10;0.83;;;23.20;57.00;;;;;;6229538;23;20354;-87
2021/08/31 09:10:12;;;;;;;1.17;0.90;;;23.20;57.00;;;;;;6228509;23;20442;-88
2021/08/31 09:12:48;;;;;;;0.80;0.60;;;23.20;57.00;;;;;;6113215;23;20381;-86
2021/08/31 09:15:30;;;;;;;1.00;0.83;;;23.20;57.00;;;;;;6138183;23;20387;-87
2021/08/31 09:20:37;;;;;;;1.10;0.87;;;23.20;57.10;;;;;;6137624;23;20514;-87
2021/08/31 09:23:05;;;;;;;1.00;0.77;;;23.20;57.00;;;;;;6113567;23;20376;-86
2021/08/31 09:25:36;;;;;;;1.10;0.83;;;23.20;57.00;;;;;;6113963;23;20416;-86
2021/08/31 09:28:43;;;;;;;1.03;0.73;;;23.20;57.00;;;;;;6113896;23;20387;-87
2021/08/31 09:31:30;;;;;;;1.30;0.93;;;23.20;57.00;;;;;;6114076;23;20385;-87
2021/08/31 09:33:57;;;;;;;1.00;0.90;;;23.20;57.00;;;;;;6115063;23;20400;-87
2021/08/31 09:36:27;;;;;;;1.00;0.80;;;23.20;57.10;;;;;;6114825;23;20385;-87
2021/08/31 09:39:29;;;;;;;1.20;0.90;;;23.20;57.10;;;;;;6114840;23;20403;-87
2021/08/31 09:43:01;;;;;;;1.07;0.80;;;23.20;57.00;;;;;;6109863;23;20439;-86
2021/08/31 09:52:22;;;;;;;1.27;1.00;;;23.10;57.00;;;;;;6109321;23;20396;-86
2021/08/31 09:54:50;;;;;;;1.20;0.97;;;23.10;57.10;;;;;;6109564;23;20380;-86
2021/08/31 09:57:42;;;;;;;1.07;0.90;;;23.10;57.10;;;;;;6110786;23;20381;-87
2021/08/31 10:00:20;;;;;;;1.30;1.00;;;23.20;57.10;;;;;;6086526;23;20557;-87
2021/08/31 10:02:51;;;;;;;1.10;0.90;;;23.10;57.10;;;;;;6108930;23;20446;-87
2021/08/31 10:05:26;;;;;;;0.97;0.70;;;23.20;57.20;;;;;;6110286;23;20378;-87
2021/08/31 10:08:10;;;;;;;1.27;0.90;;;23.20;57.20;;;;;;6110724;23;20369;-87
2021/08/31 10:10:54;;;;;;;1.10;0.87;;;23.20;57.10;;;;;;6109579;23;20418;-87
2021/08/31 10:13:46;;;;;;;1.20;0.83;;;23.20;57.20;;;;;;6110173;23;20392;-86
2021/08/31 10:16:34;;;;;;;1.00;0.90;;;23.20;57.10;;;;;;6110018;23;20401;-87
2021/08/31 10:19:24;;;;;;;0.97;0.80;;;23.20;57.10;;;;;;6111711;23;20485;-87
2021/08/31 10:21:57;;;;;;;1.23;1.00;;;23.20;57.10;;;;;;6086227;23;20805;-87
2021/08/31 10:24:57;;;;;;;1.00;0.80;;;23.10;57.00;;;;;;6122920;23;20463;-87
2021/08/31 10:27:36;;;;;;;0.80;0.70;;;23.20;57.10;;;;;;6230148;23;20354;-87
2021/08/31 10:30:26;;;;;;;1.27;1.17;;;23.20;57.20;;;;;;6229392;23;20377;-87
2021/08/31 10:33:02;;;;;;;1.50;1.10;;;23.20;57.20;;;;;;6229626;23;20378;-87
2021/08/31 10:35:32;;;;;;;1.00;0.80;;;23.10;57.10;;;;;;6229734;23;20385;-87
2021/08/31 10:38:07;;;;;;;1.00;0.80;;;23.10;57.10;;;;;;6228930;23;20371;-88
2021/08/31 10:41:27;;;;;;;1.27;0.90;;;23.20;57.20;;;;;;6229660;23;20437;-87
2021/08/31 10:44:00;;;;;;;1.30;1.00;;;23.20;57.20;;;;;;6085536;23;20387;-87
2021/08/31 10:46:58;;;;;;;1.17;0.90;;;23.10;57.10;;;;;;6225821;23;20393;-87
2021/08/31 10:49:49;;;;;;;1.13;0.90;;;23.10;57.00;;;;;;6207210;23;20379;-87
2021/08/31 10:52:34;;;;;;;1.10;0.80;;;23.10;57.60;;;;;;6229805;23;20512;-87
2021/08/31 10:55:37;;;;;;;1.00;0.80;;;23.10;57.10;;;;;;6229186;23;20370;-87
2021/08/31 10:58:53;;;;;;;0.97;0.87;;;23.10;57.10;;;;;;6229113;23;20405;-86
2021/08/31 11:01:36;;;;;;;1.10;0.90;;;23.10;57.20;;;;;;6228707;23;20422;-86
2021/08/31 11:04:24;;;;;;;1.33;1.03;;;23.00;57.20;;;;;;6229474;23;20370;-87
2021/08/31 11:07:11;;;;;;;1.13;1.00;;;23.10;57.30;;;;;;6228888;23;20452;-87
2021/08/31 11:09:44;;;;;;;1.10;0.97;;;23.10;57.30;;;;;;6229825;23;20390;-87
2021/08/31 11:12:39;;;;;;;1.17;0.90;;;23.10;57.30;;;;;;6231164;23;20359;-86
2021/08/31 11:15:06;;;;;;;1.00;0.90;;;23.10;57.30;;;;;;6228815;23;20377;-86
2021/08/31 11:21:05;;;;;;;1.20;1.00;;;23.10;57.20;;;;;;6258449;22;20815;-86
2021/08/31 11:23:34;;;;;;;1.30;0.80;;;23.10;57.20;;;;;;6257888;23;20973;-86
2021/08/31 11:26:02;;;;;;;0.90;0.70;;;23.10;57.20;;;;;;6258261;23;20392;-86
2021/08/31 11:31:27;;;;;;;1.00;0.80;;;23.10;57.20;;;;;;6258795;22;20361;-86
2021/08/31 11:34:10;;;;;;;1.10;0.80;;;23.10;57.20;;;;;;6258161;23;20385;-87
2021/08/31 11:36:40;;;;;;;1.10;0.80;;;23.10;57.10;;;;;;6233842;23;20381;-86
2021/08/31 11:39:14;;;;;;;1.00;0.77;;;23.10;57.10;;;;;;6258437;23;20439;-87
2021/08/31 11:41:44;;;;;;;0.97;0.80;;;23.10;57.20;;;;;;6258239;23;20392;-86
2021/08/31 11:44:23;;;;;;;0.90;0.70;;;23.10;57.20;;;;;;6258624;23;20861;-85
2021/08/31 11:46:56;;;;;;;1.20;0.90;;;23.10;57.10;;;;;;6233108;23;20935;-86
2021/08/31 11:49:35;;;;;;;1.10;0.90;;;23.10;57.10;;;;;;6232686;23;20450;-86
2021/08/31 11:52:12;;;;;;;0.93;0.80;;;23.10;57.10;;;;;;6223760;23;20391;-86
2021/08/31 11:55:02;;;;;;;1.20;1.00;;;23.10;57.10;;;;;;6199229;23;20363;-86
2021/08/31 11:58:05;;;;;;;1.10;1.00;;;23.10;57.10;;;;;;6173719;23;20386;-87
2021/08/31 12:01:10;;;;;;;1.20;0.80;;;23.10;57.10;;;;;;6173159;23;20430;-86
2021/08/31 12:03:38;;;;;;;0.90;0.80;;;23.10;57.10;;;;;;6174035;23;20367;-86
2021/08/31 12:06:22;;;;;;;1.27;0.90;;;23.10;57.20;;;;;;6173340;23;20383;-87
2021/08/31 12:09:01;;;;;;;1.07;0.90;;;23.10;57.20;;;;;;6173862;23;20375;-86
2021/08/31 12:11:40;;;;;;;1.10;0.90;;;23.00;57.10;;;;;;6200360;23;20403;-87
2021/08/31 12:21:48;;;;;;;1.10;1.00;;;23.10;57.10;;;;;;6095612;23;20473;-87
2021/08/31 12:27:53;;;;;;;1.20;0.90;;;23.00;57.10;;;;;;6080001;23;20433;-88
2021/08/31 12:30:51;;;;;;;1.10;0.90;;;23.00;57.20;;;;;;6079309;23;20382;-87
2021/08/31 12:33:50;;;;;;;1.13;0.97;;;23.00;57.20;;;;;;6079089;23;20418;-87
2021/08/31 12:36:37;;;;;;;1.00;0.90;;;23.00;57.20;;;;;;6077515;23;20397;-87
2021/08/31 12:39:47;;;;;;;;;;;;;;;;;;;;;
2021/08/31 12:42:18;;;;;;;1.10;0.83;;;23.00;57.20;;;;;;6079613;23;20391;-87
2021/08/31 12:44:54;;;;;;;1.10;0.87;;;23.00;57.30;;;;;;6055713;23;20471;-87
2021/08/31 12:47:20;;;;;;;0.90;0.80;;;23.00;57.30;;;;;;6079161;23;20478;-87
2021/08/31 12:50:14;;;;;;;1.00;0.70;;;23.00;57.30;;;;;;6078989;23;20386;-87
2021/08/31 12:53:08;;;;;;;1.10;0.70;;;23.10;57.30;;;;;;6068691;23;20177;-87
2021/08/31 12:55:36;;;;;;;1.10;0.80;;;23.10;57.40;;;;;;6108716;23;20465;-84
2021/08/31 12:58:41;;;;;;;0.90;0.73;;;23.00;57.30;;;;;;6108334;23;20389;-86
2021/08/31 13:01:20;;;;;;;0.90;0.70;;;23.10;57.40;;;;;;6107992;23;20461;-86
2021/08/31 13:03:53;;;;;;;1.20;0.83;;;23.00;57.30;;;;;;6157700;23;20374;-87
2021/08/31 13:07:15;;;;;;;1.00;0.70;;;23.00;57.30;;;;;;6228657;23;20382;-86
2021/08/31 13:09:49;;;;;;;1.33;1.07;;;23.00;57.30;;;;;;6178705;23;20382;-86
2021/08/31 13:12:21;;;;;;;1.00;0.90;;;23.00;57.40;;;;;;6227541;23;20377;-86
2021/08/31 13:14:59;;;;;;;1.13;0.83;;;23.00;57.40;;;;;;6253261;23;20382;-86
2021/08/31 13:17:30;;;;;;;0.90;0.70;;;23.00;57.30;;;;;;6228103;23;20374;-87
2021/08/31 13:20:09;;;;;;;1.00;0.90;;;23.00;57.40;;;;;;6229145;23;20409;-87
2021/08/31 13:22:44;;;;;;;1.00;0.80;;;23.00;57.40;;;;;;6227961;23;20362;-86
2021/08/31 13:25:13;;;;;;;1.03;0.80;;;23.00;57.40;;;;;;6252552;23;20385;-86
2021/08/31 13:27:50;;;;;;;1.20;1.00;;;23.00;57.40;;;;;;6253676;23;20386;-86
2021/08/31 13:30:23;;;;;;;1.23;0.90;;;23.00;57.40;;;;;;6253150;23;20397;-85
2021/08/31 13:32:50;;;;;;;1.13;0.90;;;23.00;57.40;;;;;;6227974;23;20461;-86
2021/08/31 13:35:27;;;;;;;1.13;0.80;;;23.00;57.20;;;;;;6229916;23;20449;-87
2021/08/31 13:38:17;;;;;;;1.20;0.90;;;23.00;57.30;;;;;;6226879;23;20382;-86
2021/08/31 13:41:13;;;;;;;1.10;1.00;;;23.00;57.30;;;;;;6201737;23;20508;-87
2021/08/31 13:43:42;;;;;;;1.20;1.00;;;23.00;57.30;;;;;;6218829;23;20409;-87
2021/08/31 13:46:08;;;;;;;1.00;0.80;;;23.00;57.40;;;;;;6252731;23;20378;-87
2021/08/31 13:48:47;;;;;;;1.00;0.80;;;23.00;57.50;;;;;;6228995;23;20396;-87
2021/08/31 13:51:23;;;;;;;1.10;0.90;;;23.00;57.50;;;;;;6207568;23;20386;-87
2021/08/31 13:53:53;;;;;;;1.20;0.97;;;23.00;57.50;;;;;;6227571;23;20468;-87
2021/08/31 13:56:19;;;;;;;1.00;0.90;;;23.00;57.40;;;;;;6228836;23;20740;-87
2021/08/31 13:58:46;;;;;;;1.50;0.90;;;23.10;57.50;;;;;;6227920;23;20382;-87
2021/08/31 14:01:18;;;;;;;1.10;0.90;;;23.10;57.40;;;;;;6227458;23;20442;-87
2021/08/31 14:04:02;;;;;;;1.10;1.00;;;23.10;57.50;;;;;;6252808;23;20374;-87
2021/08/31 14:06:30;;;;;;;1.20;0.90;;;23.10;57.40;;;;;;6203309;23;20381;-87
2021/08/31 14:08:58;;;;;;;1.03;0.80;;;23.00;57.40;;;;;;6228612;23;20409;-86
2021/08/31 14:11:27;;;;;;;1.20;1.07;;;23.00;57.40;;;;;;6231781;23;20389;-87
2021/08/31 14:14:05;;;;;;;1.00;0.80;;;23.10;57.50;;;;;;6255013;23;20735;-87
2021/08/31 14:16:31;;;;;;;1.00;0.80;;;23.00;57.50;;;;;;6255780;23;20389;-87
2021/08/31 14:22:33;;;;;;;1.20;0.90;;;23.10;57.50;;;;;;6231161;23;20373;-87
2021/08/31 14:24:59;;;;;;;1.17;0.87;;;23.00;57.50;;;;;;6229076;23;20406;-87
2021/08/31 14:27:45;;;;;;;;;;;;;;;;;;;;;
2021/08/31 14:30:20;;;;;;;1.20;1.03;;;23.00;57.40;;;;;;6230706;23;20808;-87
2021/08/31 14:32:52;;;;;;;1.10;0.90;;;23.00;57.40;;;;;;6229898;23;20473;-87
2021/08/31 14:35:23;;;;;;;1.00;0.80;;;23.00;57.40;;;;;;6229370;23;20432;-87
2021/08/31 14:37:49;;;;;;;1.00;0.70;;;23.00;57.40;;;;;;6229919;23;20374;-87
2021/08/31 14:40:21;;;;;;;1.07;0.90;;;23.00;57.40;;;;;;6230606;23;20460;-87
2021/08/31 14:42:47;;;;;;;1.00;0.90;;;23.00;57.40;;;;;;6230521;23;20150;-87
2021/08/31 14:45:24;;;;;;;1.00;0.80;;;23.00;57.40;;;;;;6228787;23;20378;-87
2021/08/31 14:47:50;;;;;;;1.10;0.97;;;23.00;57.40;;;;;;6231174;23;20420;-87
2021/08/31 14:50:19;;;;;;;1.30;1.03;;;23.00;57.40;;;;;;6232161;23;20849;-87
2021/08/31 14:56:58;;;;;;;1.20;1.00;;;23.00;57.40;;;;;;6090712;23;20364;-87
2021/08/31 15:03:08;;;;;;;0.90;0.70;;;23.00;57.40;;;;;;6201469;23;20339;-87
2021/08/31 15:05:39;;;;;;;1.10;0.97;;;22.90;57.40;;;;;;6176771;23;20438;-88
2021/08/31 15:08:07;;;;;;;1.30;0.90;;;22.90;57.50;;;;;;6175278;23;20372;-87
2021/08/31 15:10:39;;;;;;;1.03;0.80;;;23.00;57.50;;;;;;6173986;23;20385;-87
2021/08/31 15:13:08;;;;;;;1.03;0.90;;;23.00;57.60;;;;;;6173704;23;20387;-87
2021/08/31 15:15:36;;;;;;;1.40;0.90;;;23.00;57.50;;;;;;6172706;23;20383;-87
2021/08/31 15:18:09;;;;;;;1.50;0.93;;;23.00;57.50;;;;;;6172376;23;20410;-87